Time;durP1;ratioP1;P1;durP2;ratioP2;P2;SDS_P1;SDS_P2;PMS_P1;PMS_P2;Temp;Humidity;BMP_temperature;BMP_pressure;BME280_temperature;BME280_humidity;BME280_pressure;Samples;Min_cycle;Max_cycle;Signal;HPM_P1;HPM_P2
2022/06/22 00:00:24;;;;;;;15.90;11.95;;;13.10;99.90;;;;;;5038743;28;20034;-57
2022/06/22 00:02:53;;;;;;;16.20;11.75;;;13.10;99.90;;;;;;5040614;28;20043;-58
2022/06/22 00:05:47;;;;;;;15.43;11.82;;;13.00;99.90;;;;;;5038967;28;20053;-58
2022/06/22 00:08:18;;;;;;;15.77;11.90;;;13.00;99.90;;;;;;5039716;28;20098;-59
2022/06/22 00:10:57;;;;;;;15.75;11.80;;;13.00;99.90;;;;;;5040251;28;20057;-59
2022/06/22 00:13:29;;;;;;;16.60;11.30;;;12.90;99.90;;;;;;5038941;28;20101;-58
2022/06/22 00:16:06;;;;;;;12.77;9.70;;;12.90;99.90;;;;;;5040415;28;20052;-59
2022/06/22 00:18:38;;;;;;;13.23;10.18;;;12.80;99.90;;;;;;5039190;28;20052;-59
2022/06/22 00:21:17;;;;;;;12.70;8.75;;;12.70;99.90;;;;;;5038228;28;20052;-59
2022/06/22 00:23:46;;;;;;;13.80;8.57;;;12.70;99.90;;;;;;5020231;28;20050;-58
2022/06/22 00:26:24;;;;;;;11.25;7.90;;;12.60;99.90;;;;;;5019003;28;20110;-59
2022/06/22 00:29:04;;;;;;;10.27;7.88;;;12.60;99.90;;;;;;5020331;28;20042;-58
2022/06/22 00:31:42;;;;;;;10.85;8.15;;;12.60;99.90;;;;;;5018949;28;20067;-57
2022/06/22 00:34:11;;;;;;;11.70;8.23;;;12.70;99.90;;;;;;5018915;28;20053;-58
2022/06/22 00:37:10;;;;;;;11.35;7.38;;;12.60;99.90;;;;;;5020070;28;20037;-58
2022/06/22 00:39:45;;;;;;;11.50;7.45;;;12.60;99.90;;;;;;5018353;28;20060;-58
2022/06/22 00:42:21;;;;;;;11.02;7.65;;;12.60;99.90;;;;;;5019501;28;20045;-59
2022/06/22 00:45:11;;;;;;;11.52;7.70;;;12.60;99.90;;;;;;5019370;28;20128;-58
2022/06/22 00:47:45;;;;;;;9.85;6.47;;;12.60;99.90;;;;;;5018358;28;20065;-59
2022/06/22 00:50:18;;;;;;;10.02;5.82;;;12.60;99.90;;;;;;5019891;28;20050;-59
2022/06/22 00:53:00;;;;;;;8.23;4.63;;;12.50;99.90;;;;;;5035510;28;20083;-58
2022/06/22 00:55:36;;;;;;;12.35;5.22;;;12.40;99.90;;;;;;5037586;28;20133;-58
2022/06/22 00:58:07;;;;;;;9.65;6.13;;;12.40;99.90;;;;;;5039268;28;20600;-59
2022/06/22 01:00:37;;;;;;;9.55;6.65;;;12.50;99.90;;;;;;5038146;28;20091;-58
2022/06/22 01:03:19;;;;;;;8.38;6.00;;;12.40;99.90;;;;;;5039551;28;20049;-60
2022/06/22 01:06:14;;;;;;;9.15;6.72;;;12.50;99.90;;;;;;5038376;28;20062;-58
2022/06/22 01:08:52;;;;;;;10.40;6.80;;;12.40;99.90;;;;;;5025110;28;20103;-58
2022/06/22 01:15:07;;;;;;;10.75;7.57;;;12.40;99.90;;;;;;5037884;28;20077;-58
2022/06/22 01:17:50;;;;;;;10.98;7.28;;;12.40;99.90;;;;;;4976503;28;20111;-58
2022/06/22 01:20:33;;;;;;;8.70;6.32;;;12.40;99.90;;;;;;5039300;28;20076;-58
2022/06/22 01:23:23;;;;;;;9.18;5.57;;;12.40;99.90;;;;;;5021523;28;20050;-58
2022/06/22 01:25:50;;;;;;;8.48;5.78;;;12.30;99.90;;;;;;5018011;28;20050;-59
2022/06/22 01:28:17;;;;;;;8.13;5.45;;;12.30;99.90;;;;;;5019704;28;20049;-59
2022/06/22 01:30:47;;;;;;;8.73;5.43;;;12.30;99.90;;;;;;5018009;28;20034;-59
2022/06/22 01:33:30;;;;;;;6.78;4.32;;;12.20;99.90;;;;;;5019451;28;20042;-59
2022/06/22 01:35:58;;;;;;;8.63;4.60;;;12.30;99.90;;;;;;5018448;28;20062;-58
2022/06/22 01:38:33;;;;;;;9.13;5.95;;;12.20;99.90;;;;;;5018394;28;20498;-58
2022/06/22 01:41:22;;;;;;;9.43;5.43;;;12.20;99.90;;;;;;5019419;28;20053;-59
2022/06/22 01:44:15;;;;;;;9.57;5.85;;;12.10;99.90;;;;;;5017791;28;20086;-58
2022/06/22 01:46:49;;;;;;;9.68;5.43;;;12.10;99.90;;;;;;5018625;28;20065;-59
2022/06/22 01:49:30;;;;;;;9.18;5.47;;;11.90;99.90;;;;;;5019044;28;20057;-59
2022/06/22 01:52:07;;;;;;;7.30;4.80;;;11.90;99.90;;;;;;5028154;28;20038;-59
2022/06/22 01:54:39;;;;;;;8.98;5.40;;;11.90;99.90;;;;;;5038828;28;20033;-59
2022/06/22 01:57:22;;;;;;;8.80;5.72;;;11.80;99.90;;;;;;5037942;28;20050;-58
2022/06/22 02:00:01;;;;;;;8.80;5.20;;;11.80;99.90;;;;;;5039230;28;20049;-58
2022/06/22 02:02:51;;;;;;;8.25;5.22;;;11.80;99.90;;;;;;5042865;28;20093;-58
2022/06/22 02:05:24;;;;;;;8.77;5.35;;;11.70;99.90;;;;;;5030290;28;20045;-58
2022/06/22 02:07:58;;;;;;;8.57;5.68;;;11.70;99.90;;;;;;5042172;28;20496;-58
2022/06/22 02:10:41;;;;;;;8.98;6.22;;;11.70;99.90;;;;;;5042352;28;20033;-59
2022/06/22 02:13:18;;;;;;;9.15;6.00;;;11.60;99.90;;;;;;5041255;28;20453;-59
2022/06/22 02:15:54;;;;;;;9.95;6.00;;;11.60;99.90;;;;;;5042431;28;20049;-59
2022/06/22 02:18:46;;;;;;;8.50;5.45;;;11.60;99.90;;;;;;5041194;28;20041;-59
2022/06/22 02:21:35;;;;;;;8.67;4.80;;;11.60;99.90;;;;;;5010633;28;20120;-59
2022/06/22 02:24:27;;;;;;;8.15;4.70;;;11.60;99.90;;;;;;5022335;28;20099;-58
2022/06/22 02:27:02;;;;;;;7.30;4.40;;;11.50;99.90;;;;;;5021149;28;20050;-59
2022/06/22 02:29:33;;;;;;;7.78;4.10;;;11.40;99.90;;;;;;5021777;28;20050;-58
2022/06/22 02:32:02;;;;;;;8.20;4.50;;;11.30;99.90;;;;;;5021993;28;20045;-58
2022/06/22 02:34:30;;;;;;;7.72;3.88;;;11.40;99.90;;;;;;5020744;28;20042;-59
2022/06/22 02:36:57;;;;;;;6.05;3.38;;;11.30;99.90;;;;;;5021090;28;20046;-58
2022/06/22 02:39:25;;;;;;;5.65;3.38;;;11.40;99.90;;;;;;5020943;28;20056;-58
2022/06/22 02:44:41;;;;;;;6.20;2.65;;;11.10;99.90;;;;;;5021726;28;20053;-58
2022/06/22 02:47:41;;;;;;;5.05;2.50;;;11.00;99.90;;;;;;5020986;28;20057;-58
2022/06/22 02:50:45;;;;;;;7.93;2.92;;;11.10;99.90;;;;;;5022087;28;20085;-58
2022/06/22 02:53:16;;;;;;;6.50;3.38;;;11.10;99.90;;;;;;5021289;28;20056;-58
2022/06/22 02:55:42;;;;;;;6.03;3.10;;;11.20;99.90;;;;;;5020850;28;20045;-57
2022/06/22 02:58:22;;;;;;;6.75;3.17;;;11.20;99.90;;;;;;5022023;28;20049;-58
2022/06/22 03:00:48;;;;;;;5.63;3.13;;;11.20;99.90;;;;;;5020593;28;20044;-57
2022/06/22 03:03:16;;;;;;;6.70;3.15;;;11.20;99.90;;;;;;5022014;28;20073;-58
2022/06/22 03:05:46;;;;;;;6.97;3.30;;;11.30;99.90;;;;;;5019466;28;20050;-58
2022/06/22 03:08:14;;;;;;;5.97;3.28;;;11.30;99.90;;;;;;5021119;28;20046;-58
2022/06/22 03:10:54;;;;;;;6.32;2.80;;;11.10;99.90;;;;;;5021361;28;20149;-58
2022/06/22 03:13:38;;;;;;;7.93;2.97;;;11.20;99.90;;;;;;5020332;28;20045;-58
2022/06/22 03:16:04;;;;;;;6.20;2.75;;;11.20;99.90;;;;;;5021431;28;20054;-58
2022/06/22 03:18:31;;;;;;;5.95;2.83;;;11.10;99.90;;;;;;5020590;28;20053;-58
2022/06/22 03:21:01;;;;;;;6.57;2.90;;;11.10;99.90;;;;;;5021016;28;20495;-58
2022/06/22 03:24:02;;;;;;;8.02;3.30;;;11.10;99.90;;;;;;5041154;28;20056;-59
2022/06/22 03:26:33;;;;;;;5.20;2.90;;;11.20;99.90;;;;;;5019805;28;20065;-59
2022/06/22 03:29:13;;;;;;;6.20;2.60;;;11.10;99.90;;;;;;5041116;28;20073;-59
2022/06/22 03:31:47;;;;;;;5.68;3.10;;;11.10;99.90;;;;;;5040489;28;20124;-58
2022/06/22 03:34:27;;;;;;;6.47;2.70;;;11.00;99.90;;;;;;5040007;28;20097;-59
2022/06/22 03:37:01;;;;;;;5.97;3.30;;;11.10;99.90;;;;;;5041150;28;20053;-58
2022/06/22 03:39:31;;;;;;;6.35;3.15;;;11.00;99.90;;;;;;5039855;28;20056;-59
2022/06/22 03:42:13;;;;;;;7.20;3.05;;;11.10;99.90;;;;;;5040772;28;20045;-59
2022/06/22 03:44:44;;;;;;;5.25;2.80;;;11.10;99.90;;;;;;5040257;28;20045;-59
2022/06/22 03:47:20;;;;;;;5.90;3.15;;;11.00;99.90;;;;;;5039610;28;20394;-61
2022/06/22 03:49:49;;;;;;;6.45;2.70;;;11.00;99.90;;;;;;5040883;28;20068;-57
2022/06/22 03:52:31;;;;;;;5.93;2.50;;;11.00;99.90;;;;;;5039277;28;20048;-59
2022/06/22 03:55:08;;;;;;;8.07;3.17;;;11.10;99.90;;;;;;5040437;28;20052;-59
2022/06/22 03:57:39;;;;;;;6.20;3.08;;;11.00;99.90;;;;;;5040364;28;20097;-59
2022/06/22 04:00:08;;;;;;;5.68;3.10;;;11.10;99.90;;;;;;5038081;28;20087;-59
2022/06/22 04:02:34;;;;;;;6.57;3.55;;;11.20;99.90;;;;;;5040736;28;20060;-59
2022/06/22 04:05:01;;;;;;;6.25;3.50;;;11.20;99.90;;;;;;5039003;28;20703;-59
2022/06/22 04:07:34;;;;;;;5.43;2.95;;;11.30;99.90;;;;;;5040300;28;20061;-58
2022/06/22 04:10:00;;;;;;;5.90;3.47;;;11.30;99.90;;;;;;5039661;28;20038;-59
2022/06/22 04:12:43;;;;;;;6.53;3.28;;;11.40;99.90;;;;;;5039474;28;20512;-59
2022/06/22 04:15:30;;;;;;;5.75;3.45;;;11.50;99.90;;;;;;5040191;28;20099;-59
2022/06/22 04:18:21;;;;;;;6.30;3.80;;;11.40;99.90;;;;;;5038945;28;20044;-59
2022/06/22 04:20:55;;;;;;;5.82;2.92;;;11.60;99.90;;;;;;5039084;28;20046;-58
2022/06/22 04:23:26;;;;;;;6.05;3.40;;;11.60;99.90;;;;;;5016470;28;20038;-58
2022/06/22 04:25:56;;;;;;;6.07;3.58;;;11.70;99.90;;;;;;5015733;28;20080;-58
2022/06/22 04:28:24;;;;;;;7.22;4.60;;;11.80;99.90;;;;;;5017174;28;20061;-58
2022/06/22 04:30:51;;;;;;;6.15;3.58;;;11.80;99.90;;;;;;5015616;28;20076;-58
2022/06/22 04:33:41;;;;;;;6.45;3.80;;;12.00;99.90;;;;;;5016878;28;20041;-59
2022/06/22 04:36:23;;;;;;;7.28;4.53;;;12.00;99.90;;;;;;5016228;28;20060;-57
2022/06/22 04:38:51;;;;;;;;;;;12.10;99.90;;;;;;5016394;28;20060;-58
2022/06/22 04:41:38;;;;;;;7.18;3.85;;;12.20;99.90;;;;;;5017130;28;19930;-57
2022/06/22 04:44:10;;;;;;;8.98;4.93;;;12.30;99.90;;;;;;5015651;28;20057;-58
2022/06/22 04:46:41;;;;;;;8.52;5.00;;;12.40;99.90;;;;;;5015730;28;20061;-58
2022/06/22 04:49:26;;;;;;;8.32;5.13;;;12.50;99.90;;;;;;5016570;28;20038;-57
2022/06/22 04:52:05;;;;;;;8.63;5.45;;;12.60;99.90;;;;;;5025106;28;20053;-58
2022/06/22 04:54:34;;;;;;;8.52;4.95;;;12.70;99.90;;;;;;5036533;28;20053;-58
2022/06/22 04:57:11;;;;;;;8.65;5.40;;;12.50;99.90;;;;;;5035451;28;20046;-58
2022/06/22 04:59:38;;;;;;;9.18;5.20;;;12.70;99.90;;;;;;5035308;28;20063;-58
2022/06/22 05:02:09;;;;;;;10.25;5.57;;;12.50;99.90;;;;;;5036364;28;20051;-58
2022/06/22 05:04:41;;;;;;;10.27;5.70;;;12.50;99.90;;;;;;5035036;28;20080;-58
2022/06/22 05:07:25;;;;;;;10.82;6.70;;;12.60;99.90;;;;;;5036015;28;20065;-56
2022/06/22 05:09:57;;;;;;;9.57;6.80;;;12.70;99.90;;;;;;5035224;28;20038;-58
2022/06/22 05:12:25;;;;;;;11.07;7.28;;;13.10;99.90;;;;;;5035582;28;20041;-59
2022/06/22 05:14:55;;;;;;;12.43;8.20;;;13.20;99.90;;;;;;5034318;28;20050;-59
2022/06/22 05:17:28;;;;;;;12.82;8.55;;;13.30;99.90;;;;;;5034693;28;20049;-58
2022/06/22 05:20:18;;;;;;;12.93;8.70;;;13.50;99.90;;;;;;5036394;28;20053;-59
2022/06/22 05:22:44;;;;;;;13.40;8.50;;;13.70;99.90;;;;;;5019952;28;20046;-59
2022/06/22 05:25:12;;;;;;;13.88;9.15;;;13.80;99.90;;;;;;5015672;28;20061;-58
2022/06/22 05:27:53;;;;;;;15.23;9.15;;;13.90;99.90;;;;;;5015907;28;20060;-58
2022/06/22 05:30:20;;;;;;;12.85;8.80;;;14.00;99.90;;;;;;5015169;28;20046;-59
2022/06/22 05:32:52;;;;;;;13.40;10.05;;;14.10;99.90;;;;;;5014996;28;20058;-60
2022/06/22 05:35:23;;;;;;;15.65;10.05;;;14.20;99.90;;;;;;5016784;28;20108;-59
2022/06/22 05:37:52;;;;;;;13.63;10.25;;;14.30;99.90;;;;;;5019720;28;20112;-59
2022/06/22 05:40:21;;;;;;;18.83;13.25;;;14.40;99.90;;;;;;5019529;28;20608;-59
2022/06/22 05:42:47;;;;;;;17.05;15.05;;;14.50;99.90;;;;;;5018993;28;20058;-57
2022/06/22 05:45:21;;;;;;;16.67;12.90;;;14.60;99.90;;;;;;5020127;28;20126;-59
2022/06/22 05:47:47;;;;;;;16.52;13.40;;;14.70;99.90;;;;;;5018297;28;20056;-59
2022/06/22 05:50:25;;;;;;;16.15;12.00;;;14.70;99.90;;;;;;5019957;28;20102;-58
2022/06/22 05:52:59;;;;;;;20.08;14.30;;;14.80;99.90;;;;;;5036880;28;20081;-58
2022/06/22 05:55:32;;;;;;;17.80;12.80;;;14.90;99.90;;;;;;5038839;28;20064;-59
2022/06/22 05:58:30;;;;;;;16.90;13.10;;;15.10;99.90;;;;;;5039165;28;20057;-59
2022/06/22 06:00:58;;;;;;;15.63;11.93;;;15.10;99.90;;;;;;5036007;28;20065;-59
2022/06/22 06:03:53;;;;;;;17.70;11.75;;;15.20;99.90;;;;;;5038820;28;20045;-59
2022/06/22 06:06:27;;;;;;;17.70;12.00;;;15.40;99.90;;;;;;5038342;28;20104;-59
2022/06/22 06:09:00;;;;;;;17.35;10.52;;;15.40;99.90;;;;;;5037923;28;20053;-59
2022/06/22 06:11:35;;;;;;;16.23;11.60;;;15.40;99.90;;;;;;5038964;28;20077;-57
2022/06/22 06:14:05;;;;;;;15.45;11.55;;;15.50;99.90;;;;;;5037969;28;20737;-59
2022/06/22 06:16:52;;;;;;;17.92;11.18;;;15.60;99.90;;;;;;5038691;28;20045;-59
2022/06/22 06:19:22;;;;;;;17.17;11.25;;;15.60;99.90;;;;;;5038815;28;20080;-59
2022/06/22 06:21:54;;;;;;;16.10;10.25;;;15.60;99.90;;;;;;5030437;28;20072;-59
2022/06/22 06:24:24;;;;;;;17.90;10.10;;;15.60;99.90;;;;;;5019415;28;20052;-59
2022/06/22 06:30:07;;;;;;;13.25;8.55;;;15.70;99.90;;;;;;5017851;28;20100;-59
2022/06/22 06:33:09;;;;;;;15.45;9.75;;;15.90;99.90;;;;;;5018088;28;20510;-59
2022/06/22 06:35:47;;;;;;;15.13;9.45;;;15.90;99.90;;;;;;5017841;28;20050;-59
2022/06/22 06:38:33;;;;;;;15.48;9.38;;;16.10;99.90;;;;;;5018183;28;20056;-59
2022/06/22 06:41:06;;;;;;;15.55;9.68;;;16.30;99.90;;;;;;5019480;28;20050;-59
2022/06/22 06:43:38;;;;;;;11.27;7.07;;;16.40;99.90;;;;;;5017710;28;20054;-59
2022/06/22 06:46:27;;;;;;;11.27;5.82;;;16.60;99.90;;;;;;5018116;28;20968;-59
2022/06/22 06:49:14;;;;;;;12.27;5.82;;;16.80;99.90;;;;;;5014495;28;20060;-59
2022/06/22 06:51:46;;;;;;;11.20;5.68;;;16.90;99.90;;;;;;5025906;28;20042;-59
2022/06/22 06:54:38;;;;;;;9.75;5.82;;;17.00;99.90;;;;;;5038853;28;20058;-58
2022/06/22 06:57:10;;;;;;;;;;;17.10;99.90;;;;;;5037630;28;20091;-58
2022/06/22 06:59:36;;;;;;;11.00;6.45;;;17.20;99.90;;;;;;5037353;28;19959;-58
2022/06/22 07:02:16;;;;;;;13.38;5.78;;;17.20;99.90;;;;;;5038530;28;20045;-59
2022/06/22 07:04:44;;;;;;;11.45;6.05;;;17.30;99.90;;;;;;5037198;28;20069;-59
2022/06/22 07:07:26;;;;;;;12.80;6.53;;;17.20;99.90;;;;;;5038250;28;20073;-59
2022/06/22 07:09:54;;;;;;;11.82;5.53;;;17.40;99.90;;;;;;5037523;28;20049;-59
2022/06/22 07:12:33;;;;;;;12.57;5.82;;;17.60;99.90;;;;;;5037624;28;20077;-59
2022/06/22 07:15:02;;;;;;;13.18;5.90;;;17.50;99.90;;;;;;5038007;28;20835;-59
2022/06/22 07:17:31;;;;;;;10.30;6.53;;;17.60;99.90;;;;;;5035509;28;20085;-58
2022/06/22 07:20:19;;;;;;;12.15;6.30;;;17.70;99.90;;;;;;5038442;28;20077;-59
2022/06/22 07:22:51;;;;;;;10.35;6.20;;;17.80;99.90;;;;;;5021286;28;20046;-59
2022/06/22 07:25:24;;;;;;;11.30;6.07;;;17.90;99.90;;;;;;5017593;28;20116;-59
2022/06/22 07:28:21;;;;;;;11.02;6.30;;;17.90;99.90;;;;;;5018108;28;20050;-58
2022/06/22 07:31:09;;;;;;;13.20;6.80;;;18.00;99.90;;;;;;5013083;28;20058;-58
2022/06/22 07:34:11;;;;;;;10.65;6.55;;;17.90;99.90;;;;;;5015680;28;20049;-59
2022/06/22 07:36:46;;;;;;;12.50;6.50;;;17.90;99.90;;;;;;5017692;28;20058;-59
2022/06/22 07:39:16;;;;;;;11.73;6.65;;;17.60;99.90;;;;;;5016543;28;20081;-59
2022/06/22 07:41:42;;;;;;;13.40;6.60;;;17.90;99.90;;;;;;5017436;28;20107;-59
2022/06/22 07:44:13;;;;;;;11.02;6.95;;;18.10;99.90;;;;;;5016085;28;20054;-59
2022/06/22 07:47:00;;;;;;;11.52;6.47;;;18.10;99.90;;;;;;5014490;28;20054;-59
2022/06/22 07:49:34;;;;;;;11.70;6.93;;;18.00;99.90;;;;;;5017349;28;20121;-58
2022/06/22 07:52:04;;;;;;;14.25;7.60;;;17.80;99.90;;;;;;5027107;28;20037;-58
2022/06/22 07:54:46;;;;;;;11.02;5.82;;;17.90;99.90;;;;;;5037334;28;20079;-58
2022/06/22 07:57:18;;;;;;;12.80;6.93;;;17.90;99.90;;;;;;5035180;28;20084;-58
2022/06/22 07:59:56;;;;;;;13.15;6.30;;;18.00;99.90;;;;;;5034515;28;20057;-58
2022/06/22 08:02:28;;;;;;;12.60;5.35;;;18.10;99.90;;;;;;5037088;28;20524;-59
2022/06/22 08:05:07;;;;;;;12.00;5.88;;;18.20;99.90;;;;;;5035584;28;20045;-57
2022/06/22 08:07:58;;;;;;;12.65;5.78;;;18.20;99.90;;;;;;5036766;28;20076;-59
2022/06/22 08:10:33;;;;;;;12.82;5.72;;;18.20;99.90;;;;;;5037156;28;20276;-59
2022/06/22 08:13:02;;;;;;;10.77;5.05;;;18.50;99.90;;;;;;5036917;28;20049;-61
2022/06/22 08:15:33;;;;;;;12.18;5.25;;;18.60;99.90;;;;;;5039407;28;20204;-59
2022/06/22 08:18:00;;;;;;;13.93;6.10;;;18.50;99.90;;;;;;5038503;28;20524;-58
2022/06/22 08:20:31;;;;;;;10.95;5.25;;;18.60;99.90;;;;;;5039927;28;20033;-59
2022/06/22 08:22:58;;;;;;;12.82;5.10;;;18.80;99.90;;;;;;5022560;28;20038;-58
2022/06/22 08:25:24;;;;;;;10.68;5.20;;;18.50;99.90;;;;;;5019203;28;20100;-59
2022/06/22 08:27:52;;;;;;;9.63;4.32;;;18.70;99.90;;;;;;5020175;28;20069;-59
2022/06/22 08:30:19;;;;;;;11.02;5.43;;;18.90;99.90;;;;;;5018591;28;20099;-58
2022/06/22 08:33:06;;;;;;;11.85;5.05;;;18.90;99.90;;;;;;5018859;28;20058;-59
2022/06/22 08:35:43;;;;;;;13.65;5.55;;;18.90;99.90;;;;;;5018820;28;20053;-59
2022/06/22 08:38:17;;;;;;;11.05;4.43;;;19.00;99.90;;;;;;5019038;28;20050;-59
2022/06/22 08:41:10;;;;;;;11.82;4.85;;;18.90;99.90;;;;;;5021166;28;20042;-59
2022/06/22 08:43:42;;;;;;;11.35;4.93;;;18.80;99.90;;;;;;5033660;28;20038;-60
2022/06/22 08:46:10;;;;;;;12.52;4.85;;;18.90;99.90;;;;;;5030000;28;20046;-59
2022/06/22 08:49:01;;;;;;;11.02;5.40;;;18.90;99.90;;;;;;5024837;28;20157;-60
2022/06/22 08:51:46;;;;;;;10.38;5.07;;;18.80;99.90;;;;;;5026023;28;20033;-60
2022/06/22 08:54:36;;;;;;;11.65;4.82;;;19.10;99.90;;;;;;5039411;28;20049;-59
2022/06/22 08:57:25;;;;;;;10.10;4.28;;;19.00;99.90;;;;;;5038602;28;20042;-59
2022/06/22 09:00:14;;;;;;;9.88;4.45;;;19.20;99.90;;;;;;5037521;28;20134;-60
2022/06/22 09:03:17;;;;;;;8.77;4.45;;;19.00;99.90;;;;;;5039265;28;20104;-60
2022/06/22 09:06:18;;;;;;;10.18;4.15;;;19.30;99.90;;;;;;5038087;28;20045;-58
2022/06/22 09:09:02;;;;;;;11.18;5.63;;;19.50;99.90;;;;;;5037500;28;20049;-58
2022/06/22 09:12:05;;;;;;;12.32;4.50;;;19.60;99.90;;;;;;5039118;28;20479;-59
2022/06/22 09:14:46;;;;;;;12.70;4.40;;;19.80;99.90;;;;;;5038232;28;20053;-60
2022/06/22 09:17:17;;;;;;;11.02;4.47;;;19.90;99.90;;;;;;5036531;28;20045;-60
2022/06/22 09:20:09;;;;;;;9.45;4.38;;;19.90;99.90;;;;;;5039333;28;20050;-60
2022/06/22 09:22:57;;;;;;;9.15;4.15;;;20.00;99.90;;;;;;5024511;28;20092;-59
2022/06/22 09:25:29;;;;;;;10.10;4.45;;;20.10;99.90;;;;;;5018259;28;20069;-60
2022/06/22 09:27:54;;;;;;;;;;;20.30;99.90;;;;;;5018225;28;20048;-60
2022/06/22 09:30:32;;;;;;;11.35;4.63;;;20.40;99.90;;;;;;5016270;28;20016;-60
2022/06/22 09:33:03;;;;;;;11.05;4.80;;;20.40;99.90;;;;;;5018016;28;20056;-60
2022/06/22 09:35:47;;;;;;;12.65;4.88;;;20.50;99.90;;;;;;5018255;28;20573;-60
2022/06/22 09:38:26;;;;;;;12.13;5.07;;;20.60;99.90;;;;;;5018267;28;20050;-60
2022/06/22 09:41:02;;;;;;;12.18;4.68;;;20.40;99.90;;;;;;5019126;28;20054;-60
2022/06/22 09:44:23;;;;;;;9.57;3.88;;;20.20;99.90;;;;;;5017709;28;20054;-59
2022/06/22 09:47:09;;;;;;;10.85;4.75;;;20.50;99.90;;;;;;4995404;28;20106;-60
2022/06/22 09:49:58;;;;;;;11.00;4.20;;;20.50;99.90;;;;;;5019154;28;20046;-59
2022/06/22 09:52:45;;;;;;;9.75;5.07;;;20.80;99.90;;;;;;5031997;28;20076;-60
2022/06/22 09:58:32;;;;;;;11.95;5.75;;;20.80;99.90;;;;;;5038568;28;20056;-59
2022/06/22 10:01:14;;;;;;;10.63;4.82;;;20.80;99.90;;;;;;5036831;28;20050;-59
2022/06/22 10:04:06;;;;;;;13.98;6.43;;;21.00;99.90;;;;;;5037143;28;20072;-58
2022/06/22 10:06:55;;;;;;;11.68;5.40;;;21.10;99.90;;;;;;5006106;28;20061;-59
2022/06/22 10:09:30;;;;;;;13.27;5.53;;;21.20;99.90;;;;;;5036412;28;20050;-60
2022/06/22 10:12:04;;;;;;;11.10;5.75;;;21.20;99.90;;;;;;5038216;28;20042;-60
2022/06/22 10:14:49;;;;;;;12.13;5.32;;;20.80;99.90;;;;;;5038158;28;20136;-59
2022/06/22 10:17:52;;;;;;;12.02;5.68;;;20.50;99.90;;;;;;5037344;28;20096;-60
2022/06/22 10:20:32;;;;;;;12.65;5.88;;;20.60;99.90;;;;;;5038653;28;20101;-60
2022/06/22 10:23:12;;;;;;;11.10;5.38;;;20.80;99.90;;;;;;5024536;28;20077;-60
2022/06/22 10:25:46;;;;;;;12.10;6.05;;;20.80;99.90;;;;;;5020879;28;20521;-60
2022/06/22 10:29:00;;;;;;;10.23;4.85;;;21.00;99.90;;;;;;5022345;28;20042;-60
2022/06/22 10:31:43;;;;;;;12.23;5.55;;;21.20;99.90;;;;;;4998824;28;20050;-59
2022/06/22 10:34:25;;;;;;;10.02;5.15;;;21.20;99.90;;;;;;5020916;28;20058;-59
2022/06/22 10:37:00;;;;;;;;;;;21.20;99.90;;;;;;5022916;28;20058;-59
2022/06/22 10:39:46;;;;;;;9.45;5.25;;;21.40;99.90;;;;;;5020974;28;19928;-59
2022/06/22 10:45:32;;;;;;;13.20;4.95;;;21.00;99.90;;;;;;5022174;28;20049;-59
2022/06/22 10:48:16;;;;;;;10.55;5.50;;;20.90;99.90;;;;;;5020672;28;20076;-58
2022/06/22 10:50:48;;;;;;;11.90;4.57;;;21.00;99.90;;;;;;5021843;28;20132;-59
2022/06/22 10:53:35;;;;;;;11.82;5.38;;;21.00;99.90;;;;;;5041435;28;20037;-59
2022/06/22 10:56:31;;;;;;;11.27;4.68;;;20.80;99.90;;;;;;5039956;28;20049;-59
2022/06/22 10:59:24;;;;;;;11.80;5.25;;;21.30;99.90;;;;;;5041596;28;20143;-59
2022/06/22 11:02:20;;;;;;;12.07;5.32;;;21.50;99.90;;;;;;5040899;28;20049;-60
2022/06/22 11:05:07;;;;;;;11.27;4.68;;;21.70;99.90;;;;;;5039227;28;20041;-60
2022/06/22 11:07:57;;;;;;;11.05;4.93;;;21.80;99.90;;;;;;5040865;28;20076;-59
2022/06/22 11:10:25;;;;;;;12.23;6.18;;;21.90;99.90;;;;;;5039807;28;20113;-59
2022/06/22 11:12:57;;;;;;;12.45;5.65;;;21.60;99.90;;;;;;5039811;28;20080;-59
2022/06/22 11:15:35;;;;;;;10.85;4.57;;;21.70;99.90;;;;;;5041199;28;20045;-59
2022/06/22 11:18:31;;;;;;;12.27;4.50;;;21.90;99.90;;;;;;5039855;28;20124;-59
2022/06/22 11:21:18;;;;;;;11.13;5.72;;;22.00;99.90;;;;;;5039682;28;20073;-59
2022/06/22 11:24:05;;;;;;;10.40;5.10;;;21.90;99.90;;;;;;5021308;28;20056;-58
2022/06/22 11:32:48;;;;;;;;;;;22.10;99.90;;;;;;5021764;28;20045;-60
2022/06/22 11:35:43;;;;;;;12.90;4.90;;;21.80;99.90;;;;;;5019555;28;19928;-59
2022/06/22 11:38:12;;;;;;;11.20;4.80;;;21.90;99.90;;;;;;5019571;28;20088;-58
2022/06/22 11:41:01;;;;;;;13.60;4.85;;;22.00;99.90;;;;;;5021031;28;20038;-59
2022/06/22 11:43:55;;;;;;;10.75;4.82;;;22.00;99.90;;;;;;5019634;28;20538;-59
2022/06/22 11:46:24;;;;;;;12.38;4.80;;;22.20;99.90;;;;;;5020444;28;20421;-59
2022/06/22 11:49:02;;;;;;;11.57;5.00;;;22.10;99.90;;;;;;5020381;28;20069;-60
2022/06/22 11:51:58;;;;;;;11.70;4.53;;;22.20;99.90;;;;;;5026186;28;20034;-59
2022/06/22 11:54:45;;;;;;;11.25;4.93;;;22.30;99.90;;;;;;5039039;28;20079;-59
2022/06/22 11:57:46;;;;;;;9.43;4.32;;;22.40;99.90;;;;;;5039968;28;20056;-59
2022/06/22 12:00:27;;;;;;;8.80;3.97;;;22.40;99.90;;;;;;5038810;28;20073;-59
2022/06/22 12:03:33;;;;;;;10.57;4.40;;;22.40;99.90;;;;;;5040351;28;20045;-59
2022/06/22 12:06:24;;;;;;;10.27;4.53;;;22.30;99.90;;;;;;5039602;28;20103;-59
2022/06/22 12:09:31;;;;;;;9.65;3.53;;;22.40;99.90;;;;;;5036297;28;20053;-60
2022/06/22 12:12:16;;;;;;;11.65;4.65;;;22.40;99.90;;;;;;5039592;28;20643;-59
2022/06/22 12:15:05;;;;;;;11.00;4.47;;;22.00;99.90;;;;;;5039574;28;20084;-59
2022/06/22 12:17:40;;;;;;;10.63;4.28;;;21.70;99.90;;;;;;5038739;28;20045;-60
2022/06/22 12:20:33;;;;;;;10.20;4.15;;;22.00;99.90;;;;;;5040037;28;20050;-60
2022/06/22 12:23:44;;;;;;;10.30;4.00;;;22.20;99.90;;;;;;5020813;28;20046;-60
2022/06/22 12:26:36;;;;;;;10.35;4.35;;;22.10;99.90;;;;;;5012483;28;20057;-60
2022/06/22 12:29:17;;;;;;;9.93;3.63;;;22.10;99.90;;;;;;5019701;28;20096;-60
2022/06/22 12:31:50;;;;;;;9.02;3.80;;;22.20;99.90;;;;;;5020036;28;20046;-60
2022/06/22 12:34:41;;;;;;;9.60;3.88;;;22.50;99.90;;;;;;5018758;28;20053;-60
2022/06/22 12:37:21;;;;;;;11.87;4.03;;;22.60;99.90;;;;;;5019821;28;20092;-60
2022/06/22 12:39:55;;;;;;;12.07;4.70;;;22.50;99.90;;;;;;5018848;28;20042;-61
2022/06/22 12:42:45;;;;;;;13.88;4.82;;;22.20;99.90;;;;;;5019001;28;20436;-60
2022/06/22 12:45:52;;;;;;;12.55;4.55;;;22.40;99.90;;;;;;5019268;28;20057;-60
2022/06/22 12:48:39;;;;;;;10.15;4.47;;;22.60;99.90;;;;;;5010136;28;20116;-60
2022/06/22 12:51:16;;;;;;;10.68;4.30;;;22.90;99.90;;;;;;5021996;28;20042;-61
2022/06/22 12:53:53;;;;;;;11.57;5.30;;;22.90;99.90;;;;;;5039844;28;20044;-60
2022/06/22 12:56:22;;;;;;;12.52;5.97;;;23.00;99.90;;;;;;5036597;28;20053;-60
2022/06/22 12:59:08;;;;;;;10.95;5.82;;;23.00;99.90;;;;;;5039627;28;20072;-60
2022/06/22 13:01:35;;;;;;;12.55;6.57;;;22.80;99.90;;;;;;5038645;28;20060;-64
2022/06/22 13:04:08;;;;;;;11.07;5.93;;;22.30;99.90;;;;;;5038066;28;20042;-61
2022/06/22 13:06:39;;;;;;;11.98;6.10;;;22.80;99.90;;;;;;5039432;28;20085;-59
2022/06/22 13:09:06;;;;;;;10.60;5.28;;;22.60;99.90;;;;;;5038060;28;20580;-59
2022/06/22 13:11:32;;;;;;;14.15;6.78;;;22.90;99.90;;;;;;5039187;28;20056;-60
2022/06/22 13:14:25;;;;;;;11.40;6.03;;;22.80;99.90;;;;;;5038086;28;20106;-60
2022/06/22 13:16:57;;;;;;;11.88;5.60;;;22.40;99.90;;;;;;5037664;28;20053;-60
2022/06/22 13:19:46;;;;;;;12.27;5.82;;;22.40;99.90;;;;;;5039360;28;20045;-59
2022/06/22 13:22:19;;;;;;;11.05;6.90;;;22.10;99.90;;;;;;5027069;28;20065;-59
2022/06/22 13:24:56;;;;;;;11.73;5.82;;;21.90;99.90;;;;;;5019132;28;20042;-59
2022/06/22 13:27:32;;;;;;;9.85;5.20;;;22.00;99.90;;;;;;5018919;28;20046;-59
2022/06/22 13:30:23;;;;;;;12.75;6.85;;;22.30;99.90;;;;;;5016930;28;20065;-59
2022/06/22 13:33:11;;;;;;;10.32;6.72;;;22.00;99.90;;;;;;5019283;28;20080;-59
2022/06/22 13:35:42;;;;;;;11.98;5.90;;;22.20;99.90;;;;;;5018596;28;20053;-58
2022/06/22 13:38:14;;;;;;;;;;;22.40;99.90;;;;;;5017593;28;20533;-59
2022/06/22 13:41:02;;;;;;;11.27;6.13;;;22.10;99.90;;;;;;5019035;28;19925;-59
2022/06/22 13:43:39;;;;;;;12.10;5.68;;;22.30;99.90;;;;;;5017748;28;20138;-59
2022/06/22 13:46:59;;;;;;;10.35;5.65;;;22.50;99.90;;;;;;5018926;28;20864;-59
2022/06/22 13:50:30;;;;;;;11.88;5.68;;;22.30;99.90;;;;;;4996904;28;20130;-58
2022/06/22 13:53:01;;;;;;;10.95;5.22;;;21.90;99.90;;;;;;4980074;28;20038;-59
2022/06/22 13:55:41;;;;;;;11.68;6.00;;;22.00;99.90;;;;;;5016664;28;20069;-59
2022/06/22 13:58:25;;;;;;;12.85;5.35;;;22.00;99.90;;;;;;5022051;28;20050;-60
2022/06/22 14:00:58;;;;;;;11.00;5.40;;;21.90;99.90;;;;;;5021310;28;20050;-59
2022/06/22 14:03:42;;;;;;;11.55;5.10;;;21.60;99.90;;;;;;5021417;28;20034;-59